Hallandale, Florida
Current Conditions -  °F | °C
As of 11:53 AM on Tuesday 27 Jan 2015 (Local Time) from KHWO Reporting Station
Clear Clear  
Wind Chill: 65°   Ceiling: Unl
Heat Index: 65°   Visibility: 10mi
Dew Point: 28°   Wind: 15mph
Humidity: 25%   Direction: 320°NW
Pressure: 30.08"   Gusts: NA
Location:  25.98°N, 80.15°W
Report Text: KHWO 271653Z 32013KT 10SM CLR 18/M02 A3008 RMK AO2 SLP184 T01831022
Loading
Personal Weather Stations






























Interactive Weather Map New forecast layout! Learn more

10-Day Weather Forecast

Advertisements
Track Severe Weather on mobile